• Join FlightAware (Why Join?)
  • Login
  • US Flag 
07:37AM EST


 

Airport Tracker/Info


-or-


 

Live Flight TrackerFlight Track Log ✈ N92PS ✈ 25-Aug-2014 ✈ KFWQ - 76N

Flight Track Log - Related Links

Times and Time Zones

All times are in EDT time to prevent confusion due to time zone crossing. See the N92PS flight status page for this flight to view local times or setup timezone preferences in your user account.

Time Position Orientation Groundspeed Altitude Reporting Facility
EDT Latitude Longitude Course Direction KTS MPH feet Rate Location/Type
08:46PM 40.2631 -79.7314 55° Northeast 134 154 3,400  Level Cleveland Center
08:47PM 40.3006 -79.7008 32° Northeast 147 169 4,500 960 Climbing Cleveland Center
08:48PM 40.3103 -79.6533 75° East 141 162 5,400 840 Climbing Cleveland Center
08:49PM 40.3297 -79.6053 62° Northeast 146 168 6,300 840 Climbing Cleveland Center
08:50PM 40.3483 -79.5581 63° Northeast 146 168 7,200 900 Climbing Cleveland Center
08:51PM 40.3619 -79.5125 69° East 142 163 8,200 780 Climbing Cleveland Center
08:52PM 40.3778 -79.4653 66° East 140 161 8,900 780 Climbing Cleveland Center
08:53PM 40.3992 -79.4069 64° Northeast 143 165 9,800 780 Climbing Cleveland Center
08:54PM 40.4150 -79.3567 68° East 145 167 10,600 600 Climbing Cleveland Center
08:55PM 40.4314 -79.3053 67° East 150 173 11,100 180 Climbing Cleveland Center
08:56PM 40.4519 -79.2400 68° East 171 197 11,000 -60 Descending Cleveland Center
08:57PM 40.4753 -79.1822 62° Northeast 177 204 11,000  Level Cleveland Center
08:58PM 40.4958 -79.1231 65° Northeast 178 205 11,000  Level Cleveland Center
08:59PM 40.5119 -79.0597 71° East 180 207 11,000  Level Cleveland Center
09:00PM 40.5367 -79.0028 60° Northeast 181 208 11,000  Level Cleveland Center
09:01PM 40.5617 -78.9308 65° Northeast 182 209 11,100  Climbing Cleveland Center
09:02PM 40.5814 -78.8708 67° East 181 208 11,000  Descending Cleveland Center
09:03PM 40.6019 -78.8092 66° East 182 209 11,100  Climbing Cleveland Center
09:05PM 40.6200 -78.7492 68° East 182 209 11,000  Descending Cleveland Center
09:06PM 40.6411 -78.6878 66° East 183 211 11,100  Climbing Cleveland Center
09:07PM 40.6628 -78.6286 64° Northeast 183 211 11,100 -60 Level Cleveland Center
09:08PM 40.6869 -78.5550 67° East 183 211 11,000 -60 Descending Cleveland Center
09:09PM 40.7247 -78.4528 64° Northeast 187 215 11,000  Level New York Center
09:11PM 40.7481 -78.3708 69° East 185 213 11,100  Climbing Cleveland Center
09:12PM 40.7672 -78.3092 68° East 185 213 11,000 -60 Descending Cleveland Center
09:13PM 40.7917 -78.2364 66° East 184 212 11,000  Level Cleveland Center
09:14PM 40.8161 -78.1783 61° Northeast 184 212 11,100  Climbing Cleveland Center
09:15PM 40.8364 -78.1169 66° East 184 212 11,100 -60 Level Cleveland Center
09:16PM 40.8686 -78.0186 67° East 187 215 11,000 -60 Descending New York Center
09:17PM 40.8769 -77.9933 66° East 184 212 11,000  Level Cleveland Center
09:18PM 40.9036 -77.9217 64° Northeast 184 212 11,000  Level Cleveland Center
09:19PM 40.9258 -77.8600 64° Northeast 186 214 11,100  Climbing Cleveland Center
09:20PM 40.9475 -77.8000 64° Northeast 185 213 11,100 -60 Level Cleveland Center
09:21PM 40.9631 -77.7339 73° East 186 214 11,000  Descending Cleveland Center
09:22PM 40.9806 -77.6692 70° East 187 215 11,100  Climbing Cleveland Center
09:23PM 41.0025 -77.6069 65° Northeast 187 215 11,000 -60 Descending Cleveland Center
09:24PM 41.0289 -77.5350 64° Northeast 186 214 11,000  Level Cleveland Center
09:26PM 41.0717 -77.3989 67° East 187 215 11,100  Climbing New York Center
09:27PM 41.0967 -77.3242 66° East 187 215 11,100  Level New York Center
09:28PM 41.1144 -77.2653 68° East 187 215 11,100  Level New York Center
09:29PM 41.1347 -77.2011 67° East 187 215 11,100  Level New York Center
09:30PM 41.1569 -77.1369 65° Northeast 187 215 11,100  Level New York Center
09:32PM 41.1950 -77.0083 68° East 187 215 11,100  Level New York Center
09:33PM 41.2131 -76.9436 70° East 187 215 11,100  Level New York Center
09:34PM 41.2308 -76.8792 70° East 187 215 11,100  Level New York Center
09:35PM 41.2531 -76.8147 65° Northeast 187 215 11,100  Level New York Center
09:36PM 41.2728 -76.7503 68° East 187 215 11,100 -300 Level New York Center
09:37PM 41.2931 -76.6831 68° East 187 215 10,500 -960 Descending New York Center
09:38PM 41.3133 -76.6103 70° East 209 241 9,200 -1,260 Descending New York Center
09:39PM 41.3403 -76.5269 67° East 220 253 8,000 -1,200 Descending New York Center
09:40PM 41.3664 -76.4572 63° Northeast 220 253 6,900 -960 Descending New York Center
09:42PM 41.4125 -76.3200 66° East 210 242 5,100 -720 Descending New York Center
09:43PM 41.4322 -76.2581 67° East 192 221 4,800 -480 Descending New York Center
09:44PM 41.4519 -76.1878 69° East 187 215 4,200 -360 Descending New York Center
09:45PM 41.4714 -76.1256 67° East 177 204 4,100 -60 Descending New York Center
09:46PM 41.4883 -76.0769 65° Northeast 167 192 4,100 -60 Level New York Center
09:47PM 41.5053 -76.0231 67° East 162 186 4,000 -300 Descending New York Center
09:48PM 41.5181 -75.9686 73° East 157 181 3,500 -600 Descending New York Center
09:49PM 41.5494 -75.9156 52° Northeast 157 181 2,900 -480 Descending New York Center
09:50PM 41.5933 -75.9161 359° North 141 162 2,600 -360 Descending New York Center
09:51PM 41.5839 -75.9403 242° Southwest 75 86 2,200 -420 Descending New York Center
09:53PM 41.5288 -75.9346 176° South  Level FlightAware Approximate